Time;durP1;ratioP1;P1;durP2;ratioP2;P2;SDS_P1;SDS_P2;PMS_P1;PMS_P2;Temp;Humidity;BMP_temperature;BMP_pressure;BME280_temperature;BME280_humidity;BME280_pressure;Samples;Min_cycle;Max_cycle;Signal;HPM_P1;HPM_P2
2023/01/02 00:01:40;;;;;;;;;;;13.50;99.90;;;;;;5066898;28;20366;-66
2023/01/02 00:04:06;;;;;;;;;;;13.60;99.90;;;;;;5063570;28;19938;-66
2023/01/02 00:06:35;;;;;;;;;;;13.70;99.90;;;;;;5068920;28;19912;-67
2023/01/02 00:09:02;;;;;;;;;;;13.70;99.90;;;;;;5069103;28;20369;-67
2023/01/02 00:11:27;;;;;;;;;;;13.80;99.90;;;;;;5068319;28;20382;-69
2023/01/02 00:13:53;;;;;;;;;;;13.80;99.90;;;;;;5068060;28;19920;-68
2023/01/02 00:16:18;;;;;;;;;;;14.00;99.90;;;;;;5066754;28;19928;-69
2023/01/02 00:18:44;;;;;;;;;;;14.00;99.90;;;;;;5068847;28;19921;-68
2023/01/02 00:21:09;;;;;;;;;;;14.00;99.90;;;;;;5080500;28;19919;-68
2023/01/02 00:23:35;;;;;;;;;;;14.00;99.90;;;;;;5067594;28;19973;-69
2023/01/02 00:26:00;;;;;;;;;;;13.90;99.90;;;;;;5059933;28;19913;-70
2023/01/02 00:28:25;;;;;;;;;;;13.80;99.90;;;;;;5066622;28;20057;-69
2023/01/02 00:30:51;;;;;;;;;;;13.80;99.90;;;;;;5064075;28;19920;-69
2023/01/02 00:33:16;;;;;;;;;;;13.80;99.90;;;;;;5068992;28;19912;-69
2023/01/02 00:35:42;;;;;;;;;;;13.90;99.90;;;;;;5068978;28;19912;-67
2023/01/02 00:38:07;;;;;;;;;;;13.90;99.90;;;;;;5066234;28;19935;-67
2023/01/02 00:40:33;;;;;;;;;;;13.90;99.90;;;;;;5064140;28;20320;-68
2023/01/02 00:42:58;;;;;;;;;;;13.80;99.90;;;;;;5066508;28;19909;-68
2023/01/02 00:45:24;;;;;;;;;;;13.90;99.90;;;;;;5066826;28;19916;-69
2023/01/02 00:47:49;;;;;;;;;;;14.00;99.90;;;;;;5066104;28;20384;-69
2023/01/02 00:50:15;;;;;;;;;;;14.00;99.90;;;;;;5065325;28;19948;-68
2023/01/02 00:52:40;;;;;;;;;;;14.00;99.90;;;;;;5066472;28;19916;-68
2023/01/02 00:55:06;;;;;;;;;;;14.00;99.90;;;;;;5065747;28;19923;-68
2023/01/02 00:57:31;;;;;;;;;;;14.00;99.90;;;;;;5068116;28;19913;-69
2023/01/02 00:59:57;;;;;;;;;;;14.00;99.90;;;;;;5067288;28;19955;-67
2023/01/02 01:02:22;;;;;;;;;;;14.00;99.90;;;;;;5066771;28;19919;-69
2023/01/02 01:04:48;;;;;;;;;;;14.00;99.90;;;;;;5066345;28;19920;-68
2023/01/02 01:07:14;;;;;;;;;;;14.00;99.90;;;;;;5065709;28;20377;-66
2023/01/02 01:09:39;;;;;;;;;;;14.10;99.90;;;;;;5059211;28;19916;-68
2023/01/02 01:12:05;;;;;;;;;;;14.00;99.90;;;;;;5067245;28;20397;-68
2023/01/02 01:14:30;;;;;;;;;;;14.10;99.90;;;;;;5067278;28;19920;-68
2023/01/02 01:16:55;;;;;;;;;;;14.10;99.90;;;;;;5066011;28;19913;-68
2023/01/02 01:19:21;;;;;;;;;;;14.10;99.90;;;;;;5069786;28;20024;-68
2023/01/02 01:21:46;;;;;;;;;;;14.00;99.90;;;;;;5068248;28;19943;-67
2023/01/02 01:24:12;;;;;;;;;;;14.10;99.90;;;;;;5066205;28;19923;-67
2023/01/02 01:26:37;;;;;;;;;;;14.10;99.90;;;;;;5066855;28;19916;-68
2023/01/02 01:29:03;;;;;;;;;;;14.20;99.90;;;;;;5062644;28;21614;-68
2023/01/02 01:31:28;;;;;;;;;;;14.30;99.90;;;;;;5068288;28;19913;-66
2023/01/02 01:33:54;;;;;;;;;;;14.10;99.90;;;;;;5064091;28;20034;-67
2023/01/02 01:36:20;;;;;;;;;;;14.20;99.90;;;;;;5067734;28;19920;-70
2023/01/02 01:38:46;;;;;;;;;;;14.30;99.90;;;;;;5067184;28;19932;-68
2023/01/02 01:41:12;;;;;;;;;;;14.30;99.90;;;;;;5068778;28;19921;-68
2023/01/02 01:43:43;;;;;;;;;;;14.30;99.90;;;;;;5065388;28;19919;-68
2023/01/02 01:46:27;;;;;;;;;;;14.20;99.90;;;;;;5063501;28;19912;-68
2023/01/02 01:48:58;;;;;;;;;;;14.20;99.90;;;;;;5066304;28;19923;-68
2023/01/02 01:51:25;;;;;;;;;;;14.30;99.90;;;;;;5069679;28;20275;-68
2023/01/02 01:53:53;;;;;;;;;;;14.30;99.90;;;;;;5062100;28;19912;-68
2023/01/02 01:56:18;;;;;;;;;;;14.30;99.90;;;;;;5067470;28;20010;-68
2023/01/02 01:58:45;;;;;;;;;;;14.30;99.90;;;;;;5069590;28;20485;-68
2023/01/02 02:01:12;;;;;;;;;;;14.40;99.90;;;;;;5061383;28;19912;-68
2023/01/02 02:03:38;;;;;;;;;;;14.40;99.90;;;;;;5063211;28;19919;-68
2023/01/02 02:06:03;;;;;;;;;;;14.40;99.90;;;;;;5063368;28;19913;-67
2023/01/02 02:08:32;;;;;;;;;;;14.50;99.90;;;;;;5067741;28;19917;-68
2023/01/02 02:10:58;;;;;;;;;;;14.40;99.90;;;;;;5063675;28;19909;-68
2023/01/02 02:13:23;;;;;;;;;;;14.40;99.90;;;;;;5067413;28;19951;-68
2023/01/02 02:15:59;;;;;;;;;;;14.40;99.90;;;;;;5065115;28;19971;-68
2023/01/02 02:18:25;;;;;;;;;;;14.40;99.90;;;;;;5052980;28;19920;-67
2023/01/02 02:20:55;;;;;;;;;;;14.40;99.90;;;;;;5065782;28;19982;-68
2023/01/02 02:23:47;;;;;;;;;;;14.50;99.90;;;;;;5068855;28;19948;-68
2023/01/02 02:26:31;;;;;;;;;;;14.60;99.90;;;;;;5065474;28;20378;-68
2023/01/02 02:29:15;;;;;;;;;;;14.60;99.90;;;;;;5067846;28;20358;-68
2023/01/02 02:31:59;;;;;;;;;;;14.70;99.90;;;;;;5061471;28;19933;-66
2023/01/02 02:34:44;;;;;;;;;;;14.60;99.90;;;;;;5067412;28;19917;-68
2023/01/02 02:37:16;;;;;;;;;;;14.60;99.90;;;;;;5060209;28;19913;-67
2023/01/02 02:39:42;;;;;;;;;;;14.50;99.90;;;;;;5065516;28;20028;-69
2023/01/02 02:42:17;;;;;;;;;;;14.50;99.90;;;;;;5064815;28;20372;-67
2023/01/02 02:44:53;;;;;;;;;;;14.40;99.90;;;;;;5070698;28;19913;-69
2023/01/02 02:47:22;;;;;;;;;;;14.40;99.90;;;;;;5067860;28;20321;-68
2023/01/02 02:49:51;;;;;;;;;;;14.40;99.90;;;;;;5069626;28;19920;-68
2023/01/02 02:52:23;;;;;;;;;;;14.30;99.90;;;;;;5067896;28;20003;-68
2023/01/02 02:54:54;;;;;;;;;;;14.20;99.90;;;;;;5071805;28;19980;-68
2023/01/02 02:57:20;;;;;;;;;;;14.30;99.90;;;;;;5071842;28;19920;-68
2023/01/02 02:59:46;;;;;;;;;;;14.30;99.90;;;;;;5067080;28;19924;-68
2023/01/02 03:02:14;;;;;;;;;;;14.30;99.90;;;;;;5067609;28;19913;-68
2023/01/02 03:04:41;;;;;;;;;;;14.30;99.90;;;;;;5069883;28;19912;-69
2023/01/02 03:07:09;;;;;;;;;;;14.20;99.90;;;;;;5065632;28;19917;-69
2023/01/02 03:09:42;;;;;;;;;;;14.10;99.90;;;;;;5069327;28;19941;-68
2023/01/02 03:12:15;;;;;;;;;;;14.10;99.90;;;;;;5066066;28;19926;-68
2023/01/02 03:14:49;;;;;;;;;;;14.10;99.90;;;;;;5066358;28;20465;-68
2023/01/02 03:17:33;;;;;;;;;;;14.00;99.90;;;;;;5067444;28;19931;-70
2023/01/02 03:20:05;;;;;;;;;;;14.00;99.90;;;;;;5061996;28;19919;-68
2023/01/02 03:22:33;;;;;;;;;;;14.10;99.90;;;;;;5071721;28;19919;-69
2023/01/02 03:24:58;;;;;;;;;;;14.00;99.90;;;;;;5072904;28;19909;-69
2023/01/02 03:27:26;;;;;;;;;;;14.00;99.90;;;;;;5071447;28;19919;-69
2023/01/02 03:29:54;;;;;;;;;;;14.10;99.90;;;;;;5061327;28;19912;-68
2023/01/02 03:32:22;;;;;;;;;;;14.10;99.90;;;;;;5066974;28;19913;-68
2023/01/02 03:34:47;;;;;;;;;;;14.10;99.90;;;;;;5065781;28;19916;-69
2023/01/02 03:37:16;;;;;;;;;;;14.10;99.90;;;;;;5070243;28;20340;-69
2023/01/02 03:39:44;;;;;;;;;;;14.10;99.90;;;;;;5068206;28;19908;-68
2023/01/02 03:42:11;;;;;;;;;;;14.10;99.90;;;;;;5070188;28;19956;-68
2023/01/02 03:44:49;;;;;;;;;;;14.10;99.90;;;;;;5063872;28;20420;-69
2023/01/02 03:47:24;;;;;;;;;;;14.20;99.90;;;;;;5068943;28;19919;-68
2023/01/02 03:49:52;;;;;;;;;;;14.20;99.90;;;;;;5065360;28;19920;-69
2023/01/02 03:52:17;;;;;;;;;;;14.20;99.90;;;;;;5066942;28;19913;-67
2023/01/02 03:54:43;;;;;;;;;;;14.20;99.90;;;;;;5063807;28;20008;-69
2023/01/02 03:57:29;;;;;;;;;;;14.20;99.90;;;;;;5070391;28;19912;-69
2023/01/02 04:00:03;;;;;;;;;;;14.10;99.90;;;;;;5043980;28;19958;-69
2023/01/02 04:02:34;;;;;;;;;;;14.10;99.90;;;;;;5067444;28;19913;-69
2023/01/02 04:05:08;;;;;;;;;;;14.10;99.90;;;;;;5062333;28;19920;-69
2023/01/02 04:07:54;;;;;;;;;;;14.10;99.90;;;;;;5069828;28;19913;-69
2023/01/02 04:10:20;;;;;;;;;;;14.10;99.90;;;;;;5046543;28;19916;-68
2023/01/02 04:12:47;;;;;;;;;;;14.10;99.90;;;;;;5066568;28;19923;-69
2023/01/02 04:15:14;;;;;;;;;;;14.20;99.90;;;;;;5065906;28;19987;-67
2023/01/02 04:17:42;;;;;;;;;;;14.20;99.90;;;;;;5063313;28;19927;-69
2023/01/02 04:20:10;;;;;;;;;;;14.20;99.90;;;;;;5065217;28;20286;-69
2023/01/02 04:22:40;;;;;;;;;;;14.20;99.90;;;;;;5068511;28;19916;-68
2023/01/02 04:25:09;;;;;;;;;;;14.20;99.90;;;;;;5065487;28;19971;-68
2023/01/02 04:27:38;;;;;;;;;;;14.10;99.90;;;;;;5069309;28;19916;-68
2023/01/02 04:30:03;;;;;;;;;;;14.20;99.90;;;;;;5068445;28;19935;-68
2023/01/02 04:32:36;;;;;;;;;;;14.10;99.90;;;;;;5070095;28;19912;-68
2023/01/02 04:35:04;;;;;;;;;;;14.10;99.90;;;;;;5070802;28;19913;-68
2023/01/02 04:37:32;;;;;;;;;;;14.20;99.90;;;;;;5067623;28;19912;-70
2023/01/02 04:40:00;;;;;;;;;;;14.10;99.90;;;;;;5065438;28;20313;-69
2023/01/02 04:42:25;;;;;;;;;;;14.10;99.90;;;;;;5069719;28;20447;-68
2023/01/02 04:44:51;;;;;;;;;;;14.10;99.90;;;;;;5067645;28;19963;-69
2023/01/02 04:47:16;;;;;;;;;;;14.20;99.90;;;;;;5069352;28;19913;-69
2023/01/02 04:49:42;;;;;;;;;;;14.20;99.90;;;;;;5061103;28;19920;-68
2023/01/02 04:52:07;;;;;;;;;;;14.30;99.90;;;;;;5064223;28;19916;-68
2023/01/02 04:57:05;;;;;;;;;;;14.40;99.90;;;;;;5066047;22;19943;-63
2023/01/02 04:59:31;;;;;;;;;;;14.40;99.90;;;;;;5046518;28;19913;-62
2023/01/02 05:01:56;;;;;;;;;;;14.40;99.90;;;;;;5047861;28;19921;-63
2023/01/02 05:04:22;;;;;;;;;;;14.40;99.90;;;;;;5047141;28;19938;-64
2023/01/02 05:06:47;;;;;;;;;;;14.30;99.90;;;;;;5048305;28;20394;-64
2023/01/02 05:09:14;;;;;;;;;;;14.30;99.90;;;;;;5048619;28;19921;-64
2023/01/02 05:11:40;;;;;;;;;;;14.30;99.90;;;;;;5045337;28;19913;-64
2023/01/02 05:14:05;;;;;;;;;;;14.30;99.90;;;;;;5048410;28;19913;-63
2023/01/02 05:16:31;;;;;;;;;;;14.30;99.90;;;;;;5043577;28;19913;-64
2023/01/02 05:18:56;;;;;;;;;;;14.30;99.90;;;;;;5044479;28;20280;-64
2023/01/02 05:24:06;;;;;;;;;;;14.30;99.90;;;;;;5045159;28;20684;-64
2023/01/02 05:26:31;;;;;;;;;;;14.20;99.90;;;;;;5047638;28;19913;-64
2023/01/02 05:28:57;;;;;;;;;;;14.20;99.90;;;;;;5036759;28;19917;-64
2023/01/02 05:31:23;;;;;;;;;;;14.20;99.90;;;;;;5042580;28;19921;-64
2023/01/02 05:33:49;;;;;;;;;;;14.20;99.90;;;;;;5048524;28;20476;-63
2023/01/02 05:36:15;;;;;;;;;;;14.20;99.90;;;;;;5047248;28;19940;-63
2023/01/02 05:38:40;;;;;;;;;;;14.20;99.90;;;;;;5044742;28;20353;-64
2023/01/02 05:41:06;;;;;;;;;;;14.20;99.90;;;;;;5046568;28;20349;-63
2023/01/02 05:43:33;;;;;;;;;;;14.20;99.90;;;;;;5047615;28;19916;-63
2023/01/02 05:46:05;;;;;;;;;;;14.20;99.90;;;;;;5049425;28;20298;-63
2023/01/02 05:48:30;;;;;;;;;;;14.10;99.90;;;;;;5048306;28;19921;-63
2023/01/02 05:50:59;;;;;;;;;;;14.20;99.90;;;;;;5046387;28;19912;-63
2023/01/02 05:53:25;;;;;;;;;;;14.10;99.90;;;;;;5047588;28;19925;-63
2023/01/02 05:55:50;;;;;;;;;;;14.10;99.90;;;;;;5044356;28;19917;-63
2023/01/02 05:58:15;;;;;;;;;;;14.10;99.90;;;;;;5044584;28;19952;-64
2023/01/02 06:00:41;;;;;;;;;;;14.20;99.90;;;;;;5042185;28;19921;-64
2023/01/02 06:03:06;;;;;;;;;;;14.10;99.90;;;;;;5039875;28;19917;-63
2023/01/02 06:05:33;;;;;;;;;;;14.10;99.90;;;;;;5044405;28;19939;-63
2023/01/02 06:07:58;;;;;;;;;;;14.20;99.90;;;;;;5048484;28;19912;-63
2023/01/02 06:10:23;;;;;;;;;;;14.20;99.90;;;;;;5047354;28;19923;-63
2023/01/02 06:12:49;;;;;;;;;;;14.20;99.90;;;;;;5046802;28;19919;-63
2023/01/02 06:15:14;;;;;;;;;;;14.20;99.90;;;;;;5047143;28;19913;-64
2023/01/02 06:17:40;;;;;;;;;;;14.20;99.90;;;;;;5048373;28;19935;-63
2023/01/02 06:20:05;;;;;;;;;;;14.20;99.90;;;;;;5051125;28;21278;-62
2023/01/02 06:22:31;;;;;;;;;;;14.10;99.90;;;;;;5049045;28;19920;-63
2023/01/02 06:24:56;;;;;;;;;;;14.10;99.90;;;;;;5052581;28;19909;-64
2023/01/02 06:27:22;;;;;;;;;;;14.10;99.90;;;;;;5053433;28;19913;-63
2023/01/02 06:29:47;;;;;;;;;;;14.10;99.90;;;;;;5052912;28;19944;-64
2023/01/02 06:32:13;;;;;;;;;;;14.20;99.90;;;;;;5055594;28;19913;-63
2023/01/02 06:34:38;;;;;;;;;;;14.30;99.90;;;;;;5051469;28;19919;-63
2023/01/02 06:37:04;;;;;;;;;;;14.30;99.90;;;;;;5053315;28;19924;-64
2023/01/02 06:39:29;;;;;;;;;;;14.10;99.90;;;;;;5053738;28;19971;-64
2023/01/02 06:41:54;;;;;;;;;;;14.20;99.90;;;;;;5048125;28;19920;-63
2023/01/02 06:44:20;;;;;;;;;;;14.10;99.90;;;;;;5051195;28;19913;-62
2023/01/02 06:46:45;;;;;;;;;;;14.20;99.90;;;;;;5049045;28;20050;-63
2023/01/02 06:49:11;;;;;;;;;;;14.20;99.90;;;;;;5044281;28;19940;-63
2023/01/02 06:51:36;;;;;;;;;;;14.10;99.90;;;;;;5049519;28;19936;-64
2023/01/02 06:54:02;;;;;;;;;;;14.10;99.90;;;;;;5051445;28;19955;-64
2023/01/02 06:56:27;;;;;;;;;;;14.20;99.90;;;;;;5047303;28;19971;-63
2023/01/02 06:58:52;;;;;;;;;;;14.10;99.90;;;;;;5050764;28;19913;-63
2023/01/02 07:01:19;;;;;;;;;;;14.10;99.90;;;;;;5046550;28;19920;-63
2023/01/02 07:03:45;;;;;;;;;;;14.10;99.90;;;;;;5046135;28;19913;-63
2023/01/02 07:06:12;;;;;;;;;;;14.10;99.90;;;;;;5051727;28;19991;-62
2023/01/02 07:08:37;;;;;;;;;;;14.00;99.90;;;;;;5048554;28;20438;-63
2023/01/02 07:11:06;;;;;;;;;;;14.00;99.90;;;;;;5053644;28;19999;-62
2023/01/02 07:13:31;;;;;;;;;;;14.10;99.90;;;;;;5043912;28;19920;-62
2023/01/02 07:16:00;;;;;;;;;;;14.10;99.90;;;;;;5046230;28;20008;-62
2023/01/02 07:18:25;;;;;;;;;;;14.10;99.90;;;;;;5046141;28;20405;-61
2023/01/02 07:20:54;;;;;;;;;;;14.00;99.90;;;;;;5044580;28;19999;-64
2023/01/02 07:23:19;;;;;;;;;;;14.00;99.90;;;;;;5046294;28;19913;-63
2023/01/02 07:25:49;;;;;;;;;;;14.00;99.90;;;;;;5047297;28;19920;-62
2023/01/02 07:28:15;;;;;;;;;;;14.10;99.90;;;;;;5052299;28;19943;-63
2023/01/02 07:30:40;;;;;;;;;;;14.00;99.90;;;;;;5049967;28;19912;-63
2023/01/02 07:33:05;;;;;;;;;;;14.00;99.90;;;;;;5045837;28;20333;-63
2023/01/02 07:35:31;;;;;;;;;;;14.00;99.90;;;;;;5052380;28;20289;-64
2023/01/02 07:37:56;;;;;;;;;;;13.90;99.90;;;;;;5043905;28;19909;-62
2023/01/02 07:40:22;;;;;;;;;;;14.00;99.90;;;;;;5050065;28;19912;-64
2023/01/02 07:42:47;;;;;;;;;;;14.10;99.90;;;;;;5052415;28;19909;-64
2023/01/02 07:45:13;;;;;;;;;;;14.00;99.90;;;;;;5050102;28;19994;-64
2023/01/02 07:47:38;;;;;;;;;;;13.90;99.90;;;;;;5051449;28;19935;-63
2023/01/02 07:50:04;;;;;;;;;;;14.00;99.90;;;;;;5045436;28;20401;-64
2023/01/02 07:52:29;;;;;;;;;;;14.00;99.90;;;;;;5052214;28;20290;-64
2023/01/02 07:54:55;;;;;;;;;;;14.00;99.90;;;;;;5044908;28;19924;-64
2023/01/02 07:57:20;;;;;;;;;;;14.00;99.90;;;;;;5049717;28;19927;-60
2023/01/02 07:59:45;;;;;;;;;;;14.00;99.90;;;;;;5053007;28;19924;-58
2023/01/02 08:02:11;;;;;;;;;;;14.00;99.90;;;;;;5043822;28;19913;-59
2023/01/02 08:04:36;;;;;;;;;;;14.00;99.90;;;;;;5045425;28;19956;-60
2023/01/02 08:07:02;;;;;;;;;;;14.00;99.90;;;;;;5051587;28;19908;-59
2023/01/02 08:09:27;;;;;;;;;;;13.90;99.90;;;;;;5053284;28;19956;-59
2023/01/02 08:11:53;;;;;;;;;;;13.90;99.90;;;;;;5049505;28;19932;-59
2023/01/02 08:14:18;;;;;;;;;;;13.90;99.90;;;;;;5044237;28;20398;-59
2023/01/02 08:16:43;;;;;;;;;;;13.90;99.90;;;;;;5040778;28;20317;-58
2023/01/02 08:19:09;;;;;;;;;;;13.80;99.90;;;;;;5046418;28;19916;-59
2023/01/02 08:21:34;;;;;;;;;;;13.90;99.90;;;;;;5044181;28;19913;-58
2023/01/02 08:24:00;;;;;;;;;;;13.80;99.90;;;;;;5055691;28;19916;-58
2023/01/02 08:26:25;;;;;;;;;;;13.60;99.90;;;;;;5048761;28;19927;-56
2023/01/02 08:28:51;;;;;;;;;;;13.40;99.90;;;;;;5045318;28;20007;-57
2023/01/02 08:31:18;;;;;;;;;;;13.20;99.90;;;;;;5045501;28;19919;-56
2023/01/02 08:33:43;;;;;;;;;;;13.00;99.90;;;;;;5051411;28;20349;-59
2023/01/02 08:36:09;;;;;;;;;;;13.00;99.90;;;;;;5047810;28;19956;-57
2023/01/02 08:38:35;;;;;;;;;;;12.90;99.90;;;;;;5046609;28;19916;-59
2023/01/02 08:41:00;;;;;;;;;;;12.90;99.90;;;;;;5048514;28;19916;-57
2023/01/02 08:43:26;;;;;;;;;;;12.80;99.90;;;;;;5042631;28;19912;-58
2023/01/02 08:45:51;;;;;;;;;;;12.70;99.90;;;;;;5042241;28;19928;-59
2023/01/02 08:48:16;;;;;;;;;;;12.60;99.90;;;;;;5048370;28;19921;-58
2023/01/02 08:50:42;;;;;;;;;;;12.60;99.90;;;;;;5049345;28;20382;-57
2023/01/02 08:53:07;;;;;;;;;;;12.60;99.90;;;;;;5050224;28;19919;-57
2023/01/02 08:55:33;;;;;;;;;;;12.60;99.90;;;;;;5045609;28;19916;-55
2023/01/02 08:57:58;;;;;;;;;;;12.60;99.90;;;;;;5038570;28;19912;-58
2023/01/02 09:00:24;;;;;;;;;;;12.60;99.90;;;;;;5042276;28;19963;-59
2023/01/02 09:02:49;;;;;;;;;;;12.50;99.90;;;;;;5043661;28;19921;-57
2023/01/02 09:05:15;;;;;;;;;;;12.50;99.90;;;;;;5040237;28;19913;-55
2023/01/02 09:07:42;;;;;;;;;;;12.60;99.90;;;;;;5039529;28;19932;-58
2023/01/02 09:10:08;;;;;;;;;;;12.50;99.90;;;;;;5047126;28;20015;-59
2023/01/02 09:12:34;;;;;;;;;;;12.50;99.90;;;;;;5048473;28;20043;-58
2023/01/02 09:15:00;;;;;;;;;;;12.50;99.90;;;;;;5047165;28;19913;-57
2023/01/02 09:17:25;;;;;;;;;;;12.40;99.90;;;;;;5049515;28;19964;-61
2023/01/02 09:19:51;;;;;;;;;;;12.40;99.90;;;;;;5046343;28;19927;-59
2023/01/02 09:22:16;;;;;;;;;;;12.40;99.90;;;;;;5044715;28;19913;-57
2023/01/02 09:24:41;;;;;;;;;;;12.50;99.90;;;;;;5045759;28;20387;-60
2023/01/02 09:27:07;;;;;;;;;;;12.50;99.90;;;;;;5046817;28;19925;-58
2023/01/02 09:29:32;;;;;;;;;;;12.50;99.90;;;;;;5045298;28;20149;-58
2023/01/02 09:31:58;;;;;;;;;;;12.50;99.90;;;;;;5042647;28;20420;-59
2023/01/02 09:34:24;;;;;;;;;;;12.40;99.90;;;;;;5044583;28;19917;-58
2023/01/02 09:36:49;;;;;;;;;;;12.30;99.90;;;;;;5045054;28;19991;-59
2023/01/02 09:39:15;;;;;;;;;;;12.30;99.90;;;;;;5047324;28;19913;-59
2023/01/02 09:41:42;;;;;;;;;;;12.40;99.90;;;;;;5045139;28;19913;-59
2023/01/02 09:44:16;;;;;;;;;;;12.40;99.90;;;;;;5037143;28;19919;-58
2023/01/02 09:46:52;;;;;;;;;;;12.40;99.90;;;;;;5044230;28;19966;-58
2023/01/02 09:49:19;;;;;;;;;;;12.40;99.90;;;;;;5038389;28;19941;-59
2023/01/02 09:51:45;;;;;;;;;;;12.40;99.90;;;;;;5049124;28;20027;-59
2023/01/02 09:54:17;;;;;;;;;;;12.40;99.90;;;;;;5052818;28;20007;-58
2023/01/02 09:56:45;;;;;;;;;;;12.40;99.90;;;;;;5047433;28;19924;-58
2023/01/02 09:59:22;;;;;;;;;;;12.40;99.90;;;;;;5048002;28;20008;-57
2023/01/02 10:01:54;;;;;;;;;;;12.40;99.90;;;;;;5045996;28;19963;-59
2023/01/02 10:04:23;;;;;;;;;;;12.40;99.90;;;;;;5047046;28;19917;-59
2023/01/02 10:07:07;;;;;;;;;;;12.30;99.90;;;;;;5044817;28;19921;-56
2023/01/02 10:09:52;;;;;;;;;;;12.30;99.90;;;;;;5049898;28;19917;-54
2023/01/02 10:12:31;;;;;;;;;;;12.30;99.90;;;;;;5050144;28;19924;-56
2023/01/02 10:15:00;;;;;;;;;;;12.30;99.90;;;;;;5049221;28;19913;-59
2023/01/02 10:17:28;;;;;;;;;;;12.30;99.90;;;;;;5046840;28;19959;-56
2023/01/02 10:19:54;;;;;;;;;;;12.30;99.90;;;;;;5049894;28;19921;-59
2023/01/02 10:22:21;;;;;;;;;;;12.30;99.90;;;;;;5043217;28;20442;-58
2023/01/02 10:24:49;;;;;;;;;;;12.20;99.90;;;;;;5042963;28;20429;-59
2023/01/02 10:27:16;;;;;;;;;;;12.20;99.90;;;;;;5046308;28;19924;-57
2023/01/02 10:29:47;;;;;;;;;;;12.20;99.90;;;;;;5047033;28;19924;-58
2023/01/02 10:32:15;;;;;;;;;;;12.20;99.90;;;;;;5046214;28;19913;-58
2023/01/02 10:34:44;;;;;;;;;;;12.20;99.90;;;;;;5045871;28;19924;-60
2023/01/02 10:37:13;;;;;;;;;;;12.20;99.90;;;;;;5041737;28;20574;-56
2023/01/02 10:39:40;;;;;;;;;;;12.30;99.90;;;;;;5044950;28;19921;-56
2023/01/02 10:42:09;;;;;;;;;;;12.30;99.90;;;;;;5043991;28;19921;-57
2023/01/02 10:44:36;;;;;;;;;;;12.20;99.90;;;;;;5042291;28;19913;-57
2023/01/02 10:47:22;;;;;;;;;;;12.20;99.90;;;;;;5040633;28;20240;-58
2023/01/02 10:49:49;;;;;;;;;;;12.10;99.90;;;;;;5046021;28;20386;-58
2023/01/02 10:52:17;;;;;;;;;;;12.00;99.90;;;;;;5046648;28;19972;-57
2023/01/02 10:57:53;;;;;;;;;;;11.90;99.90;;;;;;5039261;28;21194;-54
2023/01/02 11:00:18;;;;;;;;;;;11.70;99.90;;;;;;5039136;28;19974;-53
2023/01/02 11:02:51;;;;;;;;;;;11.70;99.90;;;;;;5042741;28;19916;-54
2023/01/02 11:05:19;;;;;;;;;;;11.80;99.90;;;;;;5042864;28;20410;-54
2023/01/02 11:07:46;;;;;;;;;;;11.80;99.90;;;;;;5040832;28;19920;-58
2023/01/02 11:10:42;;;;;;;;;;;;;;;;;;;;;
2023/01/02 11:13:09;;;;;;;;;;;11.80;99.90;;;;;;5035430;28;19947;-57
2023/01/02 11:15:42;;;;;;;;;;;11.70;99.90;;;;;;5034946;28;20260;-56
2023/01/02 11:18:10;;;;;;;;;;;11.80;99.90;;;;;;5039951;28;19996;-60
2023/01/02 11:20:36;;;;;;;;;;;11.80;99.90;;;;;;5042089;28;19916;-59
2023/01/02 11:23:03;;;;;;;;;;;11.80;99.90;;;;;;5038401;28;19917;-58
2023/01/02 11:25:34;;;;;;;;;;;11.80;99.90;;;;;;5042614;28;19920;-59
2023/01/02 11:28:00;;;;;;;;;;;11.90;99.90;;;;;;5054212;28;19912;-57
2023/01/02 11:30:26;;;;;;;;;;;11.80;99.90;;;;;;5040020;28;19913;-53
2023/01/02 11:33:07;;;;;;;;;;;11.90;99.90;;;;;;5042757;28;19920;-58
2023/01/02 11:35:37;;;;;;;;;;;11.90;99.90;;;;;;5043480;28;19928;-58
2023/01/02 11:38:11;;;;;;;;;;;11.90;99.90;;;;;;5040834;28;20038;-54
2023/01/02 11:40:49;;;;;;;;;;;11.90;99.90;;;;;;5042478;28;20585;-59
2023/01/02 11:45:58;;;;;;;;;;;12.00;99.90;;;;;;5045844;28;19924;-59
2023/01/02 11:48:24;;;;;;;;;;;11.90;99.90;;;;;;5052641;28;19916;-59
2023/01/02 11:50:49;;;;;;;;;;;11.90;99.90;;;;;;5048210;28;19945;-59
2023/01/02 11:53:38;;;;;;;;;;;12.00;99.90;;;;;;5044808;28;19919;-59
2023/01/02 11:56:09;;;;;;;;;;;12.00;99.90;;;;;;5044640;28;19924;-58
2023/01/02 11:58:43;;;;;;;;;;;12.00;99.90;;;;;;5041209;28;19935;-59
2023/01/02 12:01:08;;;;;;;;;;;12.00;99.90;;;;;;5043408;28;20342;-57
2023/01/02 12:03:34;;;;;;;;;;;11.80;99.90;;;;;;5044092;28;19920;-59
2023/01/02 12:06:07;;;;;;;;;;;11.70;99.90;;;;;;5043072;28;19905;-56
2023/01/02 12:08:52;;;;;;;;;;;11.70;99.90;;;;;;5020839;28;20639;-54
2023/01/02 12:11:35;;;;;;;;;;;11.80;99.90;;;;;;5045199;28;19944;-59
2023/01/02 12:14:18;;;;;;;;;;;11.80;99.90;;;;;;5040143;28;19935;-58
2023/01/02 12:17:03;;;;;;;;;;;11.70;99.90;;;;;;5041897;28;19975;-55
2023/01/02 12:19:41;;;;;;;;;;;11.60;99.90;;;;;;5028378;28;20843;-54
2023/01/02 12:22:25;;;;;;;;;;;11.50;99.90;;;;;;5040974;28;19913;-57
2023/01/02 12:24:51;;;;;;;;;;;11.50;99.90;;;;;;5046921;28;19986;-58
2023/01/02 12:27:25;;;;;;;;;;;11.50;99.90;;;;;;5048217;28;20681;-58
2023/01/02 12:29:51;;;;;;;;;;;11.50;99.90;;;;;;5041757;28;19917;-56
2023/01/02 12:32:36;;;;;;;;;;;11.50;99.90;;;;;;5038969;28;20325;-55
2023/01/02 12:35:15;;;;;;;;;;;11.50;99.90;;;;;;5042933;28;19921;-58
2023/01/02 12:37:50;;;;;;;;;;;11.50;99.90;;;;;;5038272;28;19924;-57
2023/01/02 12:40:25;;;;;;;;;;;11.40;99.90;;;;;;5045106;28;19974;-55
2023/01/02 12:43:09;;;;;;;;;;;11.40;99.90;;;;;;5044800;28;19920;-55
2023/01/02 12:46:00;;;;;;;;;;;11.50;99.90;;;;;;5041221;28;19996;-55
2023/01/02 12:48:28;;;;;;;;;;;11.40;99.90;;;;;;5038537;28;19921;-54
2023/01/02 12:51:11;;;;;;;;;;;11.50;99.90;;;;;;5041732;28;19952;-58
2023/01/02 12:53:40;;;;;;;;;;;11.50;99.90;;;;;;5037297;28;19909;-54
2023/01/02 12:56:41;;;;;;;;;;;11.50;99.90;;;;;;5039272;28;19936;-54
2023/01/02 12:59:11;;;;;;;;;;;11.40;99.90;;;;;;4996757;28;20391;-58
2023/01/02 13:01:49;;;;;;;;;;;11.40;99.90;;;;;;5031600;28;19913;-56
2023/01/02 13:04:18;;;;;;;;;;;11.40;99.90;;;;;;5036259;28;20383;-56
2023/01/02 13:06:44;;;;;;;;;;;11.40;99.90;;;;;;5046804;28;19939;-57
2023/01/02 13:09:11;;;;;;;;;;;11.40;99.90;;;;;;5044675;28;20264;-54
2023/01/02 13:11:44;;;;;;;;;;;11.40;99.90;;;;;;5043599;28;19913;-58
2023/01/02 13:14:13;;;;;;;;;;;11.40;99.90;;;;;;5042928;28;19913;-53
2023/01/02 13:16:39;;;;;;;;;;;11.30;99.90;;;;;;5042872;28;20358;-58
2023/01/02 13:19:13;;;;;;;;;;;11.40;99.90;;;;;;5042620;28;19913;-56
2023/01/02 13:21:39;;;;;;;;;;;11.40;99.90;;;;;;5040168;28;20269;-55
2023/01/02 13:24:08;;;;;;;;;;;11.40;99.90;;;;;;5036368;28;19917;-57
2023/01/02 13:26:34;;;;;;;;;;;11.30;99.90;;;;;;5046998;28;19913;-56
2023/01/02 13:29:08;;;;;;;;;;;11.40;99.90;;;;;;5041111;28;20299;-59
2023/01/02 13:31:36;;;;;;;;;;;11.30;99.90;;;;;;5045627;28;19974;-58
2023/01/02 13:34:11;;;;;;;;;;;11.40;99.90;;;;;;5042774;28;19917;-54
2023/01/02 13:36:39;;;;;;;;;;;11.30;99.90;;;;;;5046368;28;19971;-57
2023/01/02 13:39:14;;;;;;;;;;;11.30;99.90;;;;;;5043299;28;20437;-58
2023/01/02 13:42:57;;;;;;;;;;;11.30;99.90;;;;;;5044706;28;19916;-56
2023/01/02 13:44:35;;;;;;;;;;;11.30;99.90;;;;;;5038006;28;19913;-57
2023/01/02 13:47:16;;;;;;;;;;;11.30;99.90;;;;;;5042924;28;19959;-56
2023/01/02 13:49:50;;;;;;;;;;;11.20;99.90;;;;;;5044500;28;19948;-58
2023/01/02 13:52:22;;;;;;;;;;;11.20;99.90;;;;;;5038863;28;19971;-56
2023/01/02 13:55:06;;;;;;;;;;;11.20;99.90;;;;;;5045329;28;20394;-55
2023/01/02 13:57:31;;;;;;;;;;;11.20;99.90;;;;;;5040583;28;19921;-55
2023/01/02 14:00:02;;;;;;;;;;;11.30;99.90;;;;;;5041183;28;19917;-53
2023/01/02 14:02:28;;;;;;;;;;;11.30;99.90;;;;;;5039239;28;19923;-59
2023/01/02 14:04:54;;;;;;;;;;;11.30;99.90;;;;;;5040866;28;20322;-59
2023/01/02 14:07:25;;;;;;;;;;;11.30;99.90;;;;;;5037199;28;19921;-59
2023/01/02 14:10:00;;;;;;;;;;;11.20;99.90;;;;;;5035287;28;19928;-57
2023/01/02 14:12:26;;;;;;;;;;;11.20;99.90;;;;;;5043252;28;19920;-56
2023/01/02 14:14:52;;;;;;;;;;;11.20;99.90;;;;;;5038638;28;20402;-58
2023/01/02 14:17:36;;;;;;;;;;;11.20;99.90;;;;;;5037679;28;19921;-55
2023/01/02 14:20:17;;;;;;;;;;;11.20;99.90;;;;;;5043232;28;19978;-56
2023/01/02 14:22:50;;;;;;;;;;;11.10;99.90;;;;;;5039368;28;19944;-51
2023/01/02 14:25:16;;;;;;;;;;;11.20;99.90;;;;;;5044435;28;20046;-56
2023/01/02 14:27:47;;;;;;;;;;;11.20;99.90;;;;;;5041968;28;19916;-56
2023/01/02 14:30:13;;;;;;;;;;;11.20;99.90;;;;;;5035695;28;19917;-54
2023/01/02 14:32:43;;;;;;;;;;;11.20;99.90;;;;;;5043182;28;19925;-54
2023/01/02 14:35:14;;;;;;;;;;;11.20;99.90;;;;;;5042174;28;20306;-54
2023/01/02 14:37:39;;;;;;;;;;;11.20;99.90;;;;;;5040811;28;20396;-52
2023/01/02 14:40:09;;;;;;;;;;;11.20;99.90;;;;;;5044393;28;19916;-56